createdAt,value
2018-02-27T00:00:38.521Z,13.43
2018-02-27T00:03:06.824Z,14.43
2018-02-27T00:05:35.160Z,13.43
2018-02-27T00:08:03.516Z,14.05
2018-02-27T00:10:31.838Z,14.15
2018-02-27T00:13:00.150Z,14.02
2018-02-27T00:15:28.492Z,14.00
2018-02-27T00:17:56.891Z,13.80
2018-02-27T00:20:25.251Z,13.27
2018-02-27T00:22:53.665Z,14.20
2018-02-27T00:25:21.967Z,12.85
2018-02-27T00:27:50.336Z,15.15
2018-02-27T00:30:18.643Z,12.40
2018-02-27T00:32:46.958Z,14.27
2018-02-27T00:35:15.312Z,13.43
2018-02-27T00:37:43.627Z,13.70
2018-02-27T00:40:11.977Z,12.27
2018-02-27T00:42:40.352Z,15.65
2018-02-27T00:45:08.776Z,13.23
2018-02-27T00:47:37.121Z,14.77
2018-02-27T00:50:05.474Z,15.07
2018-02-27T00:52:33.801Z,11.82
2018-02-27T00:55:02.105Z,13.65
2018-02-27T00:57:30.423Z,14.48
2018-02-27T00:59:58.745Z,13.20
2018-02-27T01:02:27.083Z,14.00
2018-02-27T01:04:55.415Z,13.70
2018-02-27T01:07:23.718Z,12.70
2018-02-27T01:09:52.014Z,14.57
2018-02-27T01:12:20.355Z,14.43
2018-02-27T01:14:48.658Z,13.95
2018-02-27T01:17:16.992Z,14.93
2018-02-27T01:19:45.353Z,14.60
2018-02-27T01:22:13.682Z,14.32
2018-02-27T01:24:42.027Z,15.05
2018-02-27T01:27:10.334Z,14.75
2018-02-27T01:29:38.731Z,15.13
2018-02-27T01:32:07.070Z,14.68
2018-02-27T01:34:35.398Z,14.73
2018-02-27T01:37:03.749Z,15.75
2018-02-27T01:39:32.083Z,15.27
2018-02-27T01:42:00.395Z,15.50
2018-02-27T01:44:28.726Z,15.75
2018-02-27T01:46:57.042Z,16.45
2018-02-27T01:49:25.368Z,16.50
2018-02-27T01:51:53.692Z,16.33
2018-02-27T01:54:22.022Z,14.15
2018-02-27T01:56:50.385Z,16.25
2018-02-27T01:59:18.738Z,17.58
2018-02-27T02:01:47.075Z,16.58
2018-02-27T02:04:15.431Z,15.10
2018-02-27T02:06:43.721Z,15.68
2018-02-27T02:09:12.066Z,17.02
2018-02-27T02:11:40.401Z,16.05
2018-02-27T02:14:08.747Z,16.23
2018-02-27T02:16:37.076Z,15.57
2018-02-27T02:19:05.494Z,17.48
2018-02-27T02:21:33.881Z,16.20
2018-02-27T02:24:02.306Z,16.65
2018-02-27T02:26:30.606Z,16.55
2018-02-27T02:28:58.941Z,17.00
2018-02-27T02:31:27.265Z,17.48
2018-02-27T02:33:55.605Z,16.55
2018-02-27T02:36:23.979Z,16.25
2018-02-27T02:38:52.287Z,18.00
2018-02-27T02:41:20.625Z,15.85
2018-02-27T02:43:48.952Z,15.32
2018-02-27T02:46:17.761Z,17.45
2018-02-27T02:48:53.074Z,17.35
2018-02-27T02:51:21.430Z,16.55
2018-02-27T02:53:49.886Z,15.40
2018-02-27T02:56:18.180Z,16.77
2018-02-27T02:58:46.518Z,15.73
2018-02-27T03:01:14.826Z,15.70
2018-02-27T03:03:43.128Z,16.98
2018-02-27T03:06:11.470Z,16.62
2018-02-27T03:08:39.817Z,14.85
2018-02-27T03:11:08.112Z,15.93
2018-02-27T03:13:36.476Z,17.17
2018-02-27T03:16:04.782Z,17.90
2018-02-27T03:18:33.109Z,16.80
2018-02-27T03:21:01.478Z,16.75
2018-02-27T03:23:29.801Z,17.15
2018-02-27T03:25:58.117Z,16.90
2018-02-27T03:28:26.451Z,15.68
2018-02-27T03:30:54.882Z,16.25
2018-02-27T03:33:23.185Z,15.93
2018-02-27T03:35:51.512Z,15.10
2018-02-27T03:38:19.849Z,18.17
2018-02-27T03:40:48.188Z,15.20
2018-02-27T03:43:16.539Z,16.95
2018-02-27T03:45:44.907Z,15.52
2018-02-27T03:48:13.215Z,15.65
2018-02-27T03:50:41.566Z,15.88
2018-02-27T03:53:09.907Z,15.88
2018-02-27T03:55:38.227Z,18.17
2018-02-27T03:58:06.576Z,14.60
2018-02-27T04:00:34.928Z,15.57
2018-02-27T04:03:03.247Z,16.23
2018-02-27T04:05:31.575Z,16.60
2018-02-27T04:07:59.914Z,16.65
2018-02-27T04:10:28.265Z,16.27
2018-02-27T04:12:56.578Z,17.20
2018-02-27T04:15:24.893Z,15.20
2018-02-27T04:17:53.243Z,15.93
2018-02-27T04:20:21.589Z,14.98
2018-02-27T04:22:49.925Z,15.73
2018-02-27T04:25:18.246Z,15.98
2018-02-27T04:27:46.741Z,15.00
2018-02-27T04:30:15.060Z,18.33
2018-02-27T04:32:43.420Z,17.80
2018-02-27T04:35:11.799Z,16.30
2018-02-27T04:37:40.123Z,18.58
2018-02-27T04:40:08.474Z,16.62
2018-02-27T04:42:36.824Z,15.27
2018-02-27T04:45:05.129Z,17.17
2018-02-27T04:47:33.449Z,16.33
2018-02-27T04:50:01.810Z,15.00
2018-02-27T04:52:30.165Z,16.98
2018-02-27T04:54:58.498Z,16.15
2018-02-27T04:57:26.840Z,16.35
2018-02-27T04:59:55.165Z,15.13
2018-02-27T05:02:23.503Z,15.73
2018-02-27T05:04:51.898Z,15.30
2018-02-27T05:07:20.251Z,15.57
2018-02-27T05:09:48.593Z,16.85
2018-02-27T05:12:17.001Z,18.08
2018-02-27T05:14:45.374Z,15.07
2018-02-27T05:17:13.716Z,16.87
2018-02-27T05:19:42.068Z,15.85
2018-02-27T05:22:10.625Z,15.90
2018-02-27T05:24:39.603Z,17.42
2018-02-27T05:27:07.988Z,14.02
2018-02-27T05:29:36.318Z,17.25
2018-02-27T05:32:04.641Z,16.98
2018-02-27T05:34:32.997Z,17.27
2018-02-27T05:37:01.390Z,17.00
2018-02-27T05:39:29.723Z,16.50
2018-02-27T05:41:58.034Z,18.20
2018-02-27T05:44:26.384Z,17.85
2018-02-27T05:46:54.716Z,18.77
2018-02-27T05:49:23.050Z,14.63
2018-02-27T05:51:51.369Z,15.02
2018-02-27T05:54:19.743Z,16.15
2018-02-27T05:56:48.073Z,15.20
2018-02-27T05:59:16.402Z,17.62
2018-02-27T06:01:44.794Z,17.23
2018-02-27T06:04:13.167Z,15.55
2018-02-27T06:06:41.548Z,16.35
2018-02-27T06:09:09.868Z,16.08
2018-02-27T06:11:38.203Z,17.10
2018-02-27T06:14:06.590Z,15.35
2018-02-27T06:16:34.924Z,17.90
2018-02-27T06:19:03.308Z,18.75
2018-02-27T06:21:31.692Z,17.75
2018-02-27T06:24:00.049Z,17.52
2018-02-27T06:26:28.458Z,17.77
2018-02-27T06:28:56.776Z,18.30
2018-02-27T06:31:25.154Z,17.48
2018-02-27T06:33:53.554Z,23.65
2018-02-27T06:36:21.924Z,19.30
2018-02-27T06:38:50.305Z,21.70
2018-02-27T06:41:18.657Z,21.10
2018-02-27T06:43:47.009Z,17.45
2018-02-27T06:46:15.337Z,21.27
2018-02-27T06:48:43.679Z,18.80
2018-02-27T06:51:12.036Z,16.92
2018-02-27T06:53:40.373Z,18.15
2018-02-27T06:56:08.700Z,17.80
2018-02-27T06:58:37.076Z,17.02
2018-02-27T07:01:05.407Z,18.48
2018-02-27T07:03:33.877Z,18.75
2018-02-27T07:06:02.265Z,18.58
2018-02-27T07:08:30.658Z,18.00
2018-02-27T07:10:58.985Z,17.45
2018-02-27T07:13:27.316Z,19.10
2018-02-27T07:15:55.714Z,17.85
2018-02-27T07:18:24.044Z,19.02
2018-02-27T07:20:52.410Z,17.50
2018-02-27T07:23:20.775Z,18.50
2018-02-27T07:25:49.100Z,19.02
2018-02-27T07:28:17.453Z,16.33
2018-02-27T07:30:45.758Z,18.98
2018-02-27T07:33:14.105Z,17.25
2018-02-27T07:35:42.487Z,18.58
2018-02-27T07:38:10.828Z,17.98
2018-02-27T07:40:39.181Z,17.27
2018-02-27T07:43:07.541Z,18.45
2018-02-27T07:45:35.930Z,17.30
2018-02-27T07:48:04.298Z,19.40
2018-02-27T07:50:32.653Z,19.42
2018-02-27T07:53:01.002Z,17.25
2018-02-27T07:55:29.340Z,18.80
2018-02-27T07:57:57.681Z,18.40
2018-02-27T08:00:26.026Z,18.20
2018-02-27T08:02:54.366Z,18.55
2018-02-27T08:05:22.686Z,18.17
2018-02-27T08:07:51.065Z,19.70
2018-02-27T08:10:19.375Z,17.25
2018-02-27T08:12:47.767Z,17.92
2018-02-27T08:15:16.078Z,19.10
2018-02-27T08:17:44.406Z,17.95
2018-02-27T08:20:12.747Z,18.42
2018-02-27T08:22:41.103Z,19.25
2018-02-27T08:25:09.541Z,18.17
2018-02-27T08:27:37.845Z,20.55
2018-02-27T08:30:06.183Z,19.62
2018-02-27T08:32:34.561Z,18.77
2018-02-27T08:35:02.992Z,18.77
2018-02-27T08:37:31.311Z,19.12
2018-02-27T08:39:59.649Z,20.58
2018-02-27T08:42:27.950Z,19.75
2018-02-27T08:44:56.279Z,18.67
2018-02-27T08:47:24.633Z,17.58
2018-02-27T08:49:52.974Z,18.85
2018-02-27T08:52:21.367Z,18.15
2018-02-27T08:54:49.711Z,18.00
2018-02-27T08:57:18.028Z,18.25
2018-02-27T08:59:46.400Z,19.37
2018-02-27T09:02:14.702Z,17.87
2018-02-27T09:04:43.072Z,18.50
2018-02-27T09:07:11.395Z,20.90
2018-02-27T09:09:39.732Z,19.52
2018-02-27T09:12:08.089Z,19.45
2018-02-27T09:14:36.410Z,19.20
2018-02-27T09:17:04.787Z,19.02
2018-02-27T09:19:33.177Z,19.55
2018-02-27T09:22:01.517Z,19.25
2018-02-27T09:24:29.870Z,18.87
2018-02-27T09:26:58.235Z,20.37
2018-02-27T09:29:26.637Z,19.35
2018-02-27T09:31:54.951Z,19.00
2018-02-27T09:34:23.318Z,18.52
2018-02-27T09:36:51.660Z,19.87
2018-02-27T09:39:19.968Z,19.87
2018-02-27T09:41:48.294Z,17.80
2018-02-27T09:44:16.637Z,18.70
2018-02-27T09:46:44.947Z,19.55
2018-02-27T09:49:13.271Z,18.17
2018-02-27T09:51:41.572Z,19.42
2018-02-27T09:54:09.916Z,18.37
2018-02-27T09:56:38.250Z,18.80
2018-02-27T09:59:06.573Z,19.58
2018-02-27T10:01:34.929Z,19.27
2018-02-27T10:04:03.281Z,18.87
2018-02-27T10:06:31.573Z,20.20
2018-02-27T10:08:59.894Z,19.90
2018-02-27T10:11:28.224Z,20.30
2018-02-27T10:13:56.551Z,19.40
2018-02-27T10:16:24.902Z,20.73
2018-02-27T10:18:53.248Z,18.40
2018-02-27T10:21:21.565Z,19.07
2018-02-27T10:23:49.908Z,20.20
2018-02-27T10:26:18.249Z,20.87
2018-02-27T10:28:46.587Z,19.63
2018-02-27T10:31:14.894Z,20.20
2018-02-27T10:33:43.219Z,19.10
2018-02-27T10:36:11.569Z,20.70
2018-02-27T10:38:39.924Z,20.87
2018-02-27T10:41:08.286Z,21.53
2018-02-27T10:43:36.587Z,20.23
2018-02-27T10:46:04.897Z,20.13
2018-02-27T10:48:33.201Z,19.53
2018-02-27T10:51:01.532Z,20.87
2018-02-27T10:53:29.839Z,19.47
2018-02-27T10:55:58.189Z,19.90
2018-02-27T10:58:26.493Z,19.90
2018-02-27T11:00:56.808Z,20.37
2018-02-27T11:03:25.108Z,20.57
2018-02-27T11:05:53.440Z,20.20
2018-02-27T11:08:21.798Z,21.87
2018-02-27T11:10:50.093Z,19.70
2018-02-27T11:13:18.434Z,20.10
2018-02-27T11:15:46.768Z,20.97
2018-02-27T11:18:15.116Z,22.47
2018-02-27T11:20:43.481Z,20.20
2018-02-27T11:23:11.801Z,19.47
2018-02-27T11:25:40.152Z,19.33
2018-02-27T11:28:08.476Z,19.90
2018-02-27T11:30:36.805Z,20.23
2018-02-27T11:33:05.128Z,20.03
2018-02-27T11:35:33.484Z,19.33
2018-02-27T11:38:01.829Z,20.50
2018-02-27T11:40:30.142Z,19.90
2018-02-27T11:42:58.514Z,19.02
2018-02-27T11:45:26.824Z,19.98
2018-02-27T11:47:55.140Z,21.70
2018-02-27T11:50:23.524Z,22.00
2018-02-27T11:52:51.862Z,22.55
2018-02-27T11:55:20.201Z,19.87
2018-02-27T11:57:48.514Z,21.50
2018-02-27T12:00:16.854Z,21.08
2018-02-27T12:02:45.181Z,21.00
2018-02-27T12:05:13.533Z,21.42
2018-02-27T12:07:41.886Z,20.50
2018-02-27T12:10:10.246Z,20.23
2018-02-27T12:12:38.585Z,20.95
2018-02-27T12:15:06.914Z,21.23
2018-02-27T12:17:35.279Z,19.55
2018-02-27T12:20:03.606Z,20.23
2018-02-27T12:22:31.930Z,20.73
2018-02-27T12:25:00.234Z,22.45
2018-02-27T12:27:28.637Z,20.65
2018-02-27T12:29:56.969Z,19.55
2018-02-27T12:32:25.286Z,23.80
2018-02-27T12:34:53.634Z,22.30
2018-02-27T12:37:21.976Z,24.00
2018-02-27T12:39:50.307Z,26.80
2018-02-27T12:42:18.648Z,29.25
2018-02-27T12:44:46.966Z,29.83
2018-02-27T12:47:15.333Z,30.62
2018-02-27T12:49:43.652Z,29.25
2018-02-27T12:52:11.980Z,27.37
2018-02-27T12:54:40.297Z,25.62
2018-02-27T12:57:08.613Z,26.98
2018-02-27T12:59:36.960Z,27.67
2018-02-27T13:02:05.279Z,28.27
2018-02-27T13:04:33.600Z,25.60
2018-02-27T13:07:01.953Z,28.58
2018-02-27T13:09:30.249Z,26.85
2018-02-27T13:11:58.615Z,28.55
2018-02-27T13:14:26.976Z,30.90
2018-02-27T13:16:55.324Z,28.48
2018-02-27T13:19:23.634Z,27.65
2018-02-27T13:21:51.944Z,28.30
2018-02-27T13:24:20.455Z,30.98
2018-02-27T13:26:48.853Z,27.35
2018-02-27T13:29:17.217Z,30.75
2018-02-27T13:31:45.520Z,27.90
2018-02-27T13:34:13.848Z,26.83
2018-02-27T13:36:42.177Z,26.92
2018-02-27T13:39:10.499Z,26.05
2018-02-27T13:41:38.854Z,28.33
2018-02-27T13:44:07.277Z,28.12
2018-02-27T13:46:35.602Z,24.75
2018-02-27T13:49:04.119Z,24.23
2018-02-27T13:51:32.348Z,18.95
2018-02-27T13:54:00.703Z,23.15
2018-02-27T13:56:29.059Z,27.25
2018-02-27T13:58:57.408Z,25.85
2018-02-27T14:01:25.721Z,25.77
2018-02-27T14:03:54.028Z,25.67
2018-02-27T14:06:22.355Z,26.77
2018-02-27T14:08:50.735Z,27.65
2018-02-27T14:11:19.076Z,25.80
2018-02-27T14:13:47.419Z,25.55
2018-02-27T14:16:15.778Z,28.02
2018-02-27T14:18:44.094Z,24.87
2018-02-27T14:21:12.406Z,27.48
2018-02-27T14:23:40.762Z,24.58
2018-02-27T14:26:09.096Z,24.60
2018-02-27T14:28:37.493Z,24.95
2018-02-27T14:31:05.808Z,26.23
2018-02-27T14:33:34.130Z,24.12
2018-02-27T14:36:02.472Z,23.65
2018-02-27T14:38:30.815Z,24.95
2018-02-27T14:40:59.156Z,23.58
2018-02-27T14:43:27.509Z,24.52
2018-02-27T14:45:55.829Z,22.55
2018-02-27T14:48:24.160Z,20.12
2018-02-27T14:50:52.525Z,23.15
2018-02-27T14:53:20.892Z,22.62
2018-02-27T14:55:49.203Z,24.17
2018-02-27T14:58:17.572Z,25.10
2018-02-27T15:00:45.953Z,25.58
2018-02-27T15:03:14.286Z,24.12
2018-02-27T15:05:42.607Z,25.75
2018-02-27T15:08:10.960Z,24.90
2018-02-27T15:10:39.259Z,25.77
2018-02-27T15:13:07.575Z,20.27
2018-02-27T15:15:36.004Z,25.12
2018-02-27T15:18:04.269Z,22.33
2018-02-27T15:20:32.575Z,23.27
2018-02-27T15:23:00.900Z,25.60
2018-02-27T15:25:29.272Z,24.15
2018-02-27T15:27:57.632Z,23.58
2018-02-27T15:30:25.944Z,25.12
2018-02-27T15:32:54.278Z,21.50
2018-02-27T15:35:22.609Z,22.65
2018-02-27T15:37:50.915Z,20.65
2018-02-27T15:40:19.228Z,23.87
2018-02-27T15:42:47.602Z,21.42
2018-02-27T15:45:15.926Z,20.85
2018-02-27T15:47:44.258Z,22.52
2018-02-27T15:50:12.582Z,22.30
2018-02-27T15:52:40.916Z,25.25
2018-02-27T15:55:09.281Z,22.65
2018-02-27T15:57:37.631Z,21.58
2018-02-27T16:00:05.964Z,23.05
2018-02-27T16:02:34.333Z,21.80
2018-02-27T16:05:02.755Z,23.67
2018-02-27T16:07:31.101Z,22.13
2018-02-27T16:09:59.441Z,22.58
2018-02-27T16:12:27.822Z,20.25
2018-02-27T16:14:56.176Z,23.60
2018-02-27T16:17:24.589Z,23.80
2018-02-27T16:19:52.906Z,23.92
2018-02-27T16:22:21.265Z,24.87
2018-02-27T16:24:49.583Z,21.12
2018-02-27T16:27:17.951Z,24.35
2018-02-27T16:29:46.329Z,22.20
2018-02-27T16:32:14.691Z,23.70
2018-02-27T16:34:43.006Z,22.05
2018-02-27T16:37:11.331Z,21.48
2018-02-27T16:39:39.679Z,23.30
2018-02-27T16:42:07.989Z,21.87
2018-02-27T16:44:36.476Z,21.33
2018-02-27T16:47:04.905Z,25.40
2018-02-27T16:49:33.238Z,25.95
2018-02-27T16:52:01.597Z,21.35
2018-02-27T16:54:29.957Z,21.02
2018-02-27T16:56:58.333Z,22.73
2018-02-27T16:59:26.708Z,19.23
2018-02-27T17:01:55.066Z,24.80
2018-02-27T17:04:23.431Z,23.25
2018-02-27T17:06:51.934Z,21.55
2018-02-27T17:09:20.377Z,24.45
2018-02-27T17:11:48.744Z,26.65
2018-02-27T17:14:17.119Z,24.15
2018-02-27T17:16:45.476Z,21.65
2018-02-27T17:19:14.682Z,22.70
2018-02-27T17:21:43.130Z,22.85
2018-02-27T17:24:11.611Z,23.02
2018-02-27T17:26:40.019Z,24.33
2018-02-27T17:29:08.495Z,22.48
2018-02-27T17:31:36.835Z,26.02
2018-02-27T17:34:05.325Z,27.02
2018-02-27T17:36:33.685Z,25.52
2018-02-27T17:39:02.068Z,24.25
2018-02-27T17:41:30.503Z,26.27
2018-02-27T17:43:58.836Z,28.15
2018-02-27T17:46:27.202Z,25.37
2018-02-27T17:48:55.574Z,25.60
2018-02-27T17:51:23.931Z,24.45
2018-02-27T17:53:52.306Z,23.50
2018-02-27T17:56:20.659Z,24.67
2018-02-27T17:58:49.034Z,26.55
2018-02-27T18:01:17.431Z,23.25
2018-02-27T18:03:45.865Z,25.40
2018-02-27T18:06:14.229Z,27.73
2018-02-27T18:08:42.575Z,29.17
2018-02-27T18:11:10.956Z,25.52
2018-02-27T18:13:39.335Z,26.33
2018-02-27T18:16:07.697Z,23.50
2018-02-27T18:18:36.061Z,21.25
2018-02-27T18:21:04.458Z,27.25
2018-02-27T18:23:32.823Z,25.02
2018-02-27T18:26:01.152Z,24.83
2018-02-27T18:28:29.518Z,28.75
2018-02-27T18:30:57.876Z,24.52
2018-02-27T18:33:26.209Z,25.62
2018-02-27T18:35:54.560Z,27.00
2018-02-27T18:38:22.902Z,26.20
2018-02-27T18:40:51.285Z,26.10
2018-02-27T18:43:19.636Z,26.65
2018-02-27T18:45:48.003Z,26.92
2018-02-27T18:48:16.397Z,24.75
2018-02-27T18:50:44.736Z,24.75
2018-02-27T18:53:13.102Z,29.00
2018-02-27T18:55:41.471Z,28.73
2018-02-27T18:58:09.810Z,27.52
2018-02-27T19:00:38.174Z,31.27
2018-02-27T19:03:06.508Z,31.40
2018-02-27T19:05:34.844Z,34.03
2018-02-27T19:08:03.196Z,32.28
2018-02-27T19:10:31.510Z,32.28
2018-02-27T19:12:59.915Z,28.60
2018-02-27T19:15:28.317Z,31.17
2018-02-27T19:17:56.677Z,29.80
2018-02-27T19:20:25.061Z,29.87
2018-02-27T19:22:53.422Z,28.17
2018-02-27T19:25:21.863Z,31.25
2018-02-27T19:27:50.217Z,28.67
2018-02-27T19:30:18.633Z,24.92
2018-02-27T19:32:46.998Z,27.42
2018-02-27T19:35:15.377Z,28.15
2018-02-27T19:37:43.692Z,27.67
2018-02-27T19:40:12.154Z,28.80
2018-02-27T19:42:40.509Z,26.10
2018-02-27T19:45:08.854Z,27.02
2018-02-27T19:47:37.286Z,30.92
2018-02-27T19:50:05.634Z,31.92
2018-02-27T19:52:33.966Z,26.27
2018-02-27T19:55:02.334Z,27.42
2018-02-27T19:57:30.760Z,27.83
2018-02-27T19:59:59.130Z,24.40
2018-02-27T20:02:27.525Z,23.15
2018-02-27T20:04:55.982Z,21.98
2018-02-27T20:07:24.354Z,24.65
2018-02-27T20:09:52.703Z,20.20
2018-02-27T20:12:21.061Z,23.08
2018-02-27T20:14:49.378Z,22.60
2018-02-27T20:17:17.723Z,25.62
2018-02-27T20:19:46.098Z,26.00
2018-02-27T20:22:14.536Z,23.00
2018-02-27T20:24:42.988Z,26.58
2018-02-27T20:27:11.385Z,18.52
2018-02-27T20:29:39.813Z,24.87
2018-02-27T20:32:08.235Z,25.20
2018-02-27T20:34:36.586Z,28.33
2018-02-27T20:37:05.034Z,24.15
2018-02-27T20:39:33.385Z,27.00
2018-02-27T20:42:01.690Z,26.62
2018-02-27T20:44:30.091Z,28.02
2018-02-27T20:46:58.421Z,27.67
2018-02-27T20:49:26.802Z,27.42
2018-02-27T20:51:55.182Z,27.05
2018-02-27T20:54:23.515Z,29.42
2018-02-27T20:56:51.898Z,30.58
2018-02-27T20:59:20.295Z,26.98
2018-02-27T21:01:48.659Z,30.33
2018-02-27T21:04:17.095Z,31.75
2018-02-27T21:06:45.478Z,33.55
2018-02-27T21:09:13.845Z,35.22
2018-02-27T21:11:42.162Z,32.55
2018-02-27T21:14:10.518Z,36.60
2018-02-27T21:16:38.911Z,31.52
2018-02-27T21:19:07.327Z,29.60
2018-02-27T21:21:35.723Z,33.08
2018-02-27T21:24:04.104Z,33.63
2018-02-27T21:26:32.445Z,32.72
2018-02-27T21:29:00.834Z,34.42
2018-02-27T21:31:29.243Z,36.20
2018-02-27T21:33:57.610Z,33.15
2018-02-27T21:36:26.025Z,33.80
2018-02-27T21:38:54.392Z,35.50
2018-02-27T21:41:22.768Z,36.47
2018-02-27T21:43:51.133Z,38.58
2018-02-27T21:46:19.625Z,38.00
2018-02-27T21:48:47.928Z,32.00
2018-02-27T21:51:16.297Z,35.78
2018-02-27T21:53:44.679Z,36.53
2018-02-27T21:56:13.041Z,36.95
2018-02-27T21:58:41.384Z,39.60
2018-02-27T22:01:09.712Z,35.25
2018-02-27T22:03:38.075Z,37.67
2018-02-27T22:06:06.410Z,39.88
2018-02-27T22:08:35.691Z,39.58
2018-02-27T22:11:04.058Z,39.63
2018-02-27T22:13:32.501Z,36.90
2018-02-27T22:16:00.848Z,37.45
2018-02-27T22:18:29.314Z,35.38
2018-02-27T22:20:57.673Z,37.92
2018-02-27T22:23:26.089Z,38.35
2018-02-27T22:25:54.437Z,38.80
2018-02-27T22:28:22.745Z,37.08
2018-02-27T22:30:51.123Z,35.55
2018-02-27T22:33:19.589Z,35.38
2018-02-27T22:35:47.940Z,37.47
2018-02-27T22:38:16.537Z,34.92
2018-02-27T22:40:44.900Z,40.38
2018-02-27T22:43:13.227Z,38.40
2018-02-27T22:45:41.614Z,35.25
2018-02-27T22:48:10.010Z,32.65
2018-02-27T22:50:38.394Z,32.40
2018-02-27T22:53:06.789Z,35.75
2018-02-27T22:55:35.174Z,32.75
2018-02-27T22:58:03.549Z,32.53
2018-02-27T23:00:39.755Z,32.05
2018-02-27T23:03:08.105Z,31.50
2018-02-27T23:05:36.413Z,31.95
2018-02-27T23:08:04.811Z,32.70
2018-02-27T23:10:33.168Z,31.98
2018-02-27T23:13:01.481Z,34.13
2018-02-27T23:15:29.855Z,31.15
2018-02-27T23:17:58.286Z,33.17
2018-02-27T23:20:26.635Z,28.77
2018-02-27T23:22:55.053Z,27.62
2018-02-27T23:25:27.939Z,30.08
2018-02-27T23:27:58.294Z,31.67
2018-02-27T23:30:27.673Z,30.02
2018-02-27T23:32:57.491Z,31.75
2018-02-27T23:35:26.308Z,27.13
2018-02-27T23:37:55.489Z,30.37
2018-02-27T23:40:23.821Z,28.52
2018-02-27T23:42:52.216Z,30.92
2018-02-27T23:45:20.537Z,30.65
2018-02-27T23:47:48.891Z,32.08
2018-02-27T23:50:17.282Z,32.65
2018-02-27T23:52:45.611Z,31.60
2018-02-27T23:55:13.960Z,34.65
2018-02-27T23:57:42.317Z,31.10
